Time;durP1;ratioP1;P1;durP2;ratioP2;P2;SDS_P1;SDS_P2;PMS_P1;PMS_P2;Temp;Humidity;BMP_temperature;BMP_pressure;BME280_temperature;BME280_humidity;BME280_pressure;Samples;Min_cycle;Max_cycle;Signal;HPM_P1;HPM_P2
2022/08/09 00:02:06;;;;;;;4.75;2.58;;;16.20;99.90;;;;;;5096595;28;20024;-75
2022/08/09 00:04:33;;;;;;;5.50;2.90;;;16.20;99.90;;;;;;5096459;28;20031;-81
2022/08/09 00:06:59;;;;;;;3.35;2.70;;;16.20;99.90;;;;;;5096218;28;20027;-81
2022/08/09 00:09:25;;;;;;;5.00;2.72;;;16.10;99.90;;;;;;5095040;28;20032;-75
2022/08/09 00:11:50;;;;;;;6.60;3.28;;;16.10;99.90;;;;;;5096043;28;20499;-82
2022/08/09 00:14:17;;;;;;;4.50;3.08;;;16.00;99.90;;;;;;5096043;28;20038;-80
2022/08/09 00:16:43;;;;;;;4.13;3.08;;;16.00;99.90;;;;;;5096039;28;20023;-81
2022/08/09 00:19:09;;;;;;;4.18;2.83;;;16.00;99.90;;;;;;5096046;28;20453;-75
2022/08/09 00:21:35;;;;;;;4.00;3.03;;;15.90;99.90;;;;;;5094809;28;20052;-80
2022/08/09 00:24:01;;;;;;;5.22;3.63;;;15.90;99.90;;;;;;5096022;28;20024;-81
2022/08/09 00:26:28;;;;;;;7.65;3.38;;;15.90;99.90;;;;;;5095847;28;20024;-75
2022/08/09 00:28:54;;;;;;;6.75;3.13;;;15.80;99.90;;;;;;5095850;28;20024;-76
2022/08/09 00:31:24;;;;;;;7.80;3.28;;;15.80;99.90;;;;;;5095790;28;20085;-81
2022/08/09 00:33:51;;;;;;;5.60;3.25;;;15.70;99.90;;;;;;5095148;28;20028;-75
2022/08/09 00:36:17;;;;;;;6.05;3.67;;;15.70;99.90;;;;;;5094517;28;20115;-81
2022/08/09 00:38:43;;;;;;;5.13;3.60;;;15.60;99.90;;;;;;5095654;28;20032;-75
2022/08/09 00:41:10;;;;;;;7.68;3.28;;;15.50;99.90;;;;;;5095687;28;20020;-75
2022/08/09 00:43:36;;;;;;;6.97;3.25;;;15.50;99.90;;;;;;5095745;28;20099;-81
2022/08/09 00:46:04;;;;;;;4.28;3.88;;;15.50;99.90;;;;;;5094319;28;20044;-81
2022/08/09 00:48:30;;;;;;;4.88;3.13;;;15.40;99.90;;;;;;5093756;28;20052;-81
2022/08/09 00:50:56;;;;;;;7.38;3.40;;;15.50;99.90;;;;;;5095541;28;20020;-81
2022/08/09 00:53:22;;;;;;;5.57;3.33;;;15.50;99.90;;;;;;5095246;28;20110;-75
2022/08/09 00:55:48;;;;;;;3.80;2.97;;;15.40;99.90;;;;;;5095407;28;20047;-81
2022/08/09 00:58:14;;;;;;;6.60;3.10;;;15.40;99.90;;;;;;5093807;28;20024;-82
2022/08/09 01:00:42;;;;;;;6.13;4.05;;;15.40;99.90;;;;;;5094002;28;20071;-80
2022/08/09 01:03:15;;;;;;;5.78;3.30;;;15.40;99.90;;;;;;5093747;28;20115;-74
2022/08/09 01:05:53;;;;;;;3.33;3.05;;;15.50;99.90;;;;;;5095267;28;20430;-75
2022/08/09 01:08:33;;;;;;;5.93;3.25;;;15.50;99.90;;;;;;5095228;28;20508;-74
2022/08/09 01:11:43;;;;;;;6.22;3.22;;;15.40;99.90;;;;;;5095191;28;20020;-81
2022/08/09 01:14:16;;;;;;;5.32;2.88;;;15.40;99.90;;;;;;5092896;28;20055;-81
2022/08/09 01:16:45;;;;;;;8.13;3.28;;;15.30;99.90;;;;;;5093822;28;20020;-81
2022/08/09 01:19:26;;;;;;;7.35;3.45;;;15.30;99.90;;;;;;5093550;28;20440;-75
2022/08/09 01:22:20;;;;;;;6.68;3.40;;;15.20;99.90;;;;;;5094910;28;20020;-81
2022/08/09 01:25:08;;;;;;;8.18;3.53;;;15.30;99.90;;;;;;5094941;28;20028;-75
2022/08/09 01:27:34;;;;;;;3.47;3.17;;;15.20;99.90;;;;;;5093617;28;20081;-75
2022/08/09 01:30:04;;;;;;;6.15;3.67;;;15.20;99.90;;;;;;5094768;28;20025;-81
2022/08/09 01:32:36;;;;;;;4.47;3.30;;;15.20;99.90;;;;;;5094851;28;20023;-75
2022/08/09 01:35:07;;;;;;;6.55;3.47;;;15.20;99.90;;;;;;5094763;28;20066;-80
2022/08/09 01:37:36;;;;;;;7.70;3.72;;;15.20;99.90;;;;;;5093243;28;20094;-74
2022/08/09 01:40:05;;;;;;;9.43;4.18;;;15.20;99.90;;;;;;5094446;28;20074;-74
2022/08/09 01:42:33;;;;;;;6.53;4.20;;;15.10;99.90;;;;;;5094332;28;20465;-81
2022/08/09 01:45:01;;;;;;;4.13;3.65;;;15.10;99.90;;;;;;5092666;28;20024;-74
2022/08/09 01:47:28;;;;;;;6.43;3.97;;;15.00;99.90;;;;;;5093608;28;20028;-80
2022/08/09 01:49:56;;;;;;;8.70;4.10;;;15.00;99.90;;;;;;5094376;28;20534;-81
2022/08/09 01:52:24;;;;;;;7.45;4.40;;;15.00;99.90;;;;;;5092756;28;20028;-75
2022/08/09 01:54:55;;;;;;;7.55;4.47;;;15.00;99.90;;;;;;5094154;28;20028;-74
2022/08/09 01:57:27;;;;;;;7.00;5.28;;;14.90;99.90;;;;;;5094286;28;20461;-74
2022/08/09 01:59:57;;;;;;;16.80;4.10;;;14.90;99.90;;;;;;5092908;28;20445;-81
2022/08/09 02:02:26;;;;;;;6.45;3.80;;;15.00;99.90;;;;;;5094247;28;20020;-74
2022/08/09 02:04:54;;;;;;;6.10;3.97;;;14.90;99.90;;;;;;5094022;28;20024;-74
2022/08/09 02:07:23;;;;;;;6.18;4.00;;;14.90;99.90;;;;;;5094038;28;20030;-74
2022/08/09 02:09:55;;;;;;;8.73;4.35;;;14.90;99.90;;;;;;5093964;28;20016;-81
2022/08/09 02:12:22;;;;;;;6.30;3.53;;;14.80;99.90;;;;;;5093752;28;20020;-81
2022/08/09 02:14:51;;;;;;;8.32;3.88;;;14.80;99.90;;;;;;5093873;28;20040;-81
2022/08/09 02:17:20;;;;;;;3.78;3.25;;;14.70;99.90;;;;;;5094034;28;20034;-74
2022/08/09 02:19:46;;;;;;;7.05;3.10;;;14.70;99.90;;;;;;5092475;28;20119;-81
2022/08/09 02:22:35;;;;;;;5.50;4.13;;;14.70;99.90;;;;;;5093773;28;20062;-74
2022/08/09 02:25:06;;;;;;;7.93;3.50;;;14.60;99.90;;;;;;5093642;28;20040;-82
2022/08/09 02:27:37;;;;;;;8.43;3.67;;;14.60;99.90;;;;;;5092546;28;20500;-81
2022/08/09 02:30:04;;;;;;;7.38;3.50;;;14.50;99.90;;;;;;5092485;28;20127;-75
2022/08/09 02:32:36;;;;;;;4.43;3.95;;;14.40;99.90;;;;;;5093550;28;20024;-82
2022/08/09 02:35:06;;;;;;;4.18;3.42;;;14.30;99.90;;;;;;5093610;28;20024;-81
2022/08/09 02:37:36;;;;;;;6.13;3.35;;;14.20;99.90;;;;;;5093546;28;20023;-81
2022/08/09 02:40:06;;;;;;;5.60;4.05;;;14.10;99.90;;;;;;5093473;28;20099;-75
2022/08/09 02:42:38;;;;;;;5.10;3.90;;;14.10;99.90;;;;;;5093416;28;20015;-81
2022/08/09 02:45:08;;;;;;;8.20;4.27;;;14.00;99.90;;;;;;5092101;28;20017;-74
2022/08/09 02:47:35;;;;;;;5.07;3.88;;;13.90;99.90;;;;;;5093294;28;20285;-80
2022/08/09 02:50:09;;;;;;;4.72;3.35;;;13.90;99.90;;;;;;5093415;28;20445;-74
2022/08/09 02:52:42;;;;;;;5.88;3.90;;;13.80;99.90;;;;;;5093556;28;20021;-81
2022/08/09 02:55:09;;;;;;;6.93;3.85;;;13.80;99.90;;;;;;5093307;28;20074;-74
2022/08/09 02:57:37;;;;;;;4.78;3.35;;;13.70;99.90;;;;;;5096821;28;20095;-81
2022/08/09 03:00:06;;;;;;;7.53;3.85;;;13.70;99.90;;;;;;5099913;28;20032;-74
2022/08/09 03:02:34;;;;;;;9.35;4.05;;;13.70;99.90;;;;;;5098832;28;20043;-74
2022/08/09 03:05:02;;;;;;;3.80;3.42;;;13.60;99.90;;;;;;5099927;28;20117;-74
2022/08/09 03:07:29;;;;;;;4.07;3.20;;;13.60;99.90;;;;;;5100032;28;20047;-79
2022/08/09 03:09:56;;;;;;;6.15;3.50;;;13.60;99.90;;;;;;5098710;28;20035;-74
2022/08/09 03:12:23;;;;;;;7.35;4.22;;;13.60;99.90;;;;;;5099703;28;20076;-74
2022/08/09 03:14:49;;;;;;;6.20;3.33;;;13.60;99.90;;;;;;5098674;28;20038;-75
2022/08/09 03:17:16;;;;;;;4.20;3.28;;;13.50;99.90;;;;;;5099924;28;20099;-74
2022/08/09 03:19:42;;;;;;;7.68;4.78;;;13.50;99.90;;;;;;5099806;28;20025;-75
2022/08/09 03:22:09;;;;;;;6.57;4.03;;;13.50;99.90;;;;;;5099781;28;20035;-74
2022/08/09 03:24:35;;;;;;;5.65;4.13;;;13.50;99.90;;;;;;5098563;28;20028;-80
2022/08/09 03:27:04;;;;;;;5.72;3.40;;;13.50;99.90;;;;;;5099735;28;20115;-74
2022/08/09 03:29:30;;;;;;;4.28;3.85;;;13.60;99.90;;;;;;5099777;28;20024;-81
2022/08/09 03:31:56;;;;;;;12.68;3.58;;;13.60;99.90;;;;;;5099765;28;20067;-74
2022/08/09 03:34:22;;;;;;;6.72;3.72;;;13.60;99.90;;;;;;5098246;28;20032;-80
2022/08/09 03:36:48;;;;;;;4.88;3.40;;;13.60;99.90;;;;;;5099686;28;20417;-81
2022/08/09 03:39:14;;;;;;;5.47;3.63;;;13.60;99.90;;;;;;5099579;28;20351;-80
2022/08/09 03:41:39;;;;;;;5.00;4.00;;;13.70;99.90;;;;;;5099725;28;20512;-79
2022/08/09 03:44:05;;;;;;;8.20;3.55;;;13.70;99.90;;;;;;5099623;28;20488;-79
2022/08/09 03:46:31;;;;;;;5.32;3.72;;;13.70;99.90;;;;;;5098249;28;20030;-79
2022/08/09 03:48:58;;;;;;;3.75;3.35;;;13.60;99.90;;;;;;5099454;28;20123;-80
2022/08/09 03:51:26;;;;;;;4.90;3.30;;;13.60;99.90;;;;;;5099554;28;20048;-74
2022/08/09 03:53:53;;;;;;;6.70;3.70;;;13.60;99.90;;;;;;5099440;28;20028;-80
2022/08/09 03:56:19;;;;;;;8.07;3.97;;;13.70;99.90;;;;;;5098131;28;20398;-74
2022/08/09 03:58:45;;;;;;;4.03;3.20;;;13.80;99.90;;;;;;5099609;28;20020;-74
2022/08/09 04:01:11;;;;;;;5.43;3.78;;;14.00;99.90;;;;;;5099290;28;20062;-80
2022/08/09 04:03:38;;;;;;;4.57;3.67;;;14.10;99.90;;;;;;5098276;28;20048;-74
2022/08/09 04:06:04;;;;;;;5.05;3.78;;;14.40;99.90;;;;;;5099579;28;20024;-75
2022/08/09 04:08:31;;;;;;;6.72;3.08;;;14.60;99.90;;;;;;5097324;28;20111;-74
2022/08/09 04:10:56;;;;;;;4.53;3.65;;;14.70;99.90;;;;;;5096135;28;20017;-80
2022/08/09 04:13:22;;;;;;;4.85;3.78;;;14.70;99.90;;;;;;5096220;28;20059;-80
2022/08/09 04:15:47;;;;;;;5.68;3.25;;;14.80;99.90;;;;;;5094880;28;20020;-75
2022/08/09 04:18:13;;;;;;;5.05;3.53;;;15.00;99.90;;;;;;5096090;28;20027;-81
2022/08/09 04:20:40;;;;;;;5.75;4.10;;;15.10;99.90;;;;;;5096033;28;20504;-80
2022/08/09 04:23:07;;;;;;;6.25;3.42;;;15.30;99.90;;;;;;5096269;28;20081;-75
2022/08/09 04:25:33;;;;;;;6.78;3.90;;;15.50;99.90;;;;;;5095983;28;20020;-81
2022/08/09 04:27:59;;;;;;;6.47;3.70;;;15.60;99.90;;;;;;5095947;28;20115;-75
2022/08/09 04:30:24;;;;;;;6.50;3.30;;;15.70;99.90;;;;;;5094582;28;20103;-80
2022/08/09 04:32:50;;;;;;;4.25;3.50;;;15.80;99.90;;;;;;5094489;28;20081;-74
2022/08/09 04:35:16;;;;;;;4.60;2.70;;;15.90;99.90;;;;;;5095794;28;20367;-75
2022/08/09 04:37:42;;;;;;;3.92;3.05;;;16.10;99.90;;;;;;5095744;28;20499;-81
2022/08/09 04:40:10;;;;;;;8.32;3.25;;;16.10;99.90;;;;;;5094362;28;20024;-75
2022/08/09 04:42:35;;;;;;;5.18;3.67;;;16.20;99.90;;;;;;5095994;28;20031;-76
2022/08/09 04:45:02;;;;;;;5.57;2.83;;;16.30;99.90;;;;;;5095570;28;20393;-76
2022/08/09 04:47:28;;;;;;;4.53;3.22;;;16.40;99.90;;;;;;5095330;28;20446;-75
2022/08/09 04:49:55;;;;;;;5.90;3.08;;;16.60;99.90;;;;;;5095470;28;20476;-81
2022/08/09 04:52:22;;;;;;;5.45;3.15;;;16.70;99.90;;;;;;5096028;28;20059;-81
2022/08/09 04:54:50;;;;;;;6.13;2.63;;;16.70;99.90;;;;;;5095385;28;20051;-75
2022/08/09 04:57:16;;;;;;;5.60;3.10;;;16.80;99.50;;;;;;5095569;28;20020;-81
2022/08/09 04:59:41;;;;;;;6.13;2.63;;;16.90;97.80;;;;;;5095422;28;20069;-75
2022/08/09 05:02:07;;;;;;;3.17;2.50;;;16.90;93.90;;;;;;5095271;28;20060;-75
2022/08/09 05:04:33;;;;;;;5.65;2.67;;;17.00;92.00;;;;;;5095452;28;20032;-76
2022/08/09 05:06:58;;;;;;;5.05;2.50;;;17.10;91.80;;;;;;5094870;28;20027;-81
2022/08/09 05:09:24;;;;;;;6.82;2.72;;;17.20;92.10;;;;;;5094024;28;20072;-75
2022/08/09 05:11:50;;;;;;;3.38;2.40;;;17.30;92.20;;;;;;5094781;28;20146;-75
2022/08/09 05:14:16;;;;;;;9.63;3.17;;;17.30;90.00;;;;;;5093513;28;20043;-76
2022/08/09 05:16:41;;;;;;;3.72;2.17;;;17.40;91.60;;;;;;5094859;28;20017;-75
2022/08/09 05:19:07;;;;;;;3.47;2.72;;;17.50;90.60;;;;;;5095020;28;20032;-76
2022/08/09 05:21:32;;;;;;;5.72;2.40;;;17.50;86.90;;;;;;5094718;28;20027;-81
2022/08/09 05:23:58;;;;;;;4.43;2.00;;;17.60;86.20;;;;;;5093554;28;20020;-75
2022/08/09 05:26:24;;;;;;;2.42;1.90;;;17.60;84.80;;;;;;5094760;28;20099;-81
2022/08/09 05:28:50;;;;;;;3.53;2.08;;;17.70;84.80;;;;;;5093526;28;20043;-82
2022/08/09 05:31:16;;;;;;;6.70;2.33;;;17.80;84.90;;;;;;5082120;28;20028;-81
2022/08/09 05:33:42;;;;;;;4.00;2.10;;;17.80;83.10;;;;;;5074081;28;20120;-82
2022/08/09 05:36:07;;;;;;;4.75;2.45;;;17.90;83.80;;;;;;5072869;28;20107;-75
2022/08/09 05:38:33;;;;;;;3.78;2.22;;;17.90;82.80;;;;;;5081026;28;20027;-75
2022/08/09 05:40:59;;;;;;;3.65;2.13;;;18.00;83.70;;;;;;5093935;28;20030;-75
2022/08/09 05:43:24;;;;;;;8.57;2.20;;;18.20;85.60;;;;;;5092923;28;20378;-76
2022/08/09 05:45:50;;;;;;;6.57;2.40;;;18.30;85.20;;;;;;5094336;28;20020;-75
2022/08/09 05:48:15;;;;;;;2.45;1.85;;;18.50;82.00;;;;;;5093918;28;20051;-75
2022/08/09 05:50:43;;;;;;;3.63;1.90;;;18.70;75.90;;;;;;5092873;28;20397;-75
2022/08/09 05:53:09;;;;;;;1.70;1.60;;;18.70;75.40;;;;;;5094005;28;20092;-75
2022/08/09 05:55:35;;;;;;;4.38;2.75;;;18.80;76.00;;;;;;5093806;28;20024;-76
2022/08/09 05:58:00;;;;;;;1.98;1.77;;;18.90;75.50;;;;;;5093716;28;20035;-75
2022/08/09 06:00:28;;;;;;;2.47;2.28;;;19.00;79.30;;;;;;5094088;28;20489;-76
2022/08/09 06:02:58;;;;;;;3.05;2.00;;;19.10;79.00;;;;;;5093821;28;20016;-82
2022/08/09 06:05:26;;;;;;;6.32;1.60;;;19.20;75.60;;;;;;5094173;28;20091;-82
2022/08/09 06:07:52;;;;;;;5.70;1.75;;;19.30;74.70;;;;;;5093883;28;20036;-82
2022/08/09 06:10:18;;;;;;;3.47;1.90;;;19.40;71.80;;;;;;5093777;28;20114;-76
2022/08/09 06:12:43;;;;;;;5.38;1.65;;;19.40;70.00;;;;;;5093375;28;20089;-73
2022/08/09 06:15:10;;;;;;;4.53;1.80;;;19.40;69.40;;;;;;5092275;28;20020;-73
2022/08/09 06:17:35;;;;;;;2.72;1.83;;;19.40;69.60;;;;;;5089885;28;20103;-73
2022/08/09 06:20:01;;;;;;;2.60;2.00;;;19.50;68.80;;;;;;5091555;28;20119;-79
2022/08/09 06:22:27;;;;;;;2.45;1.90;;;19.60;69.00;;;;;;5091158;28;20123;-74
2022/08/09 06:24:53;;;;;;;6.18;2.70;;;19.70;69.20;;;;;;5091688;28;20103;-73
2022/08/09 06:27:19;;;;;;;3.05;1.70;;;19.90;68.20;;;;;;5093479;28;20024;-74
2022/08/09 06:29:44;;;;;;;4.40;2.25;;;19.90;67.50;;;;;;5093510;28;20103;-75
2022/08/09 06:32:10;;;;;;;3.72;1.67;;;20.10;66.80;;;;;;5091751;28;20020;-75
2022/08/09 06:34:36;;;;;;;2.92;1.75;;;20.20;66.20;;;;;;5093620;28;20072;-80
2022/08/09 06:37:02;;;;;;;2.67;2.38;;;20.30;66.00;;;;;;5093443;28;20103;-81
2022/08/09 06:39:29;;;;;;;4.28;1.73;;;20.40;65.70;;;;;;5093560;28;20058;-80
2022/08/09 06:41:55;;;;;;;2.20;1.50;;;20.60;66.00;;;;;;5092040;28;20020;-80
2022/08/09 06:44:21;;;;;;;1.60;1.40;;;20.80;65.60;;;;;;5093162;28;20027;-81
2022/08/09 06:46:47;;;;;;;2.50;1.27;;;20.90;64.90;;;;;;5087690;28;20051;-74
2022/08/09 06:49:13;;;;;;;5.53;1.63;;;20.90;62.90;;;;;;5081879;28;20044;-74
2022/08/09 06:51:38;;;;;;;3.00;1.77;;;20.90;61.80;;;;;;5085348;28;20023;-75
2022/08/09 06:54:04;;;;;;;2.80;1.40;;;21.00;61.90;;;;;;5073073;28;20040;-75
2022/08/09 06:56:30;;;;;;;1.85;1.13;;;20.90;61.00;;;;;;5071847;28;20471;-81
2022/08/09 06:58:55;;;;;;;2.58;1.40;;;21.00;60.40;;;;;;5073131;28;20501;-75
2022/08/09 07:01:21;;;;;;;2.25;1.00;;;21.00;61.00;;;;;;5081802;28;20025;-81
2022/08/09 07:03:47;;;;;;;2.17;1.40;;;21.10;60.40;;;;;;5083332;28;20024;-75
2022/08/09 07:06:12;;;;;;;5.05;1.35;;;21.20;59.90;;;;;;5072829;28;20030;-80
2022/08/09 07:08:38;;;;;;;4.40;1.27;;;21.20;59.60;;;;;;5071334;28;20023;-80
2022/08/09 07:11:04;;;;;;;1.95;1.35;;;21.30;60.00;;;;;;5073520;28;20025;-80
2022/08/09 07:13:30;;;;;;;2.00;1.17;;;21.20;59.10;;;;;;5072505;28;20101;-79
2022/08/09 07:15:56;;;;;;;2.75;1.20;;;21.30;58.20;;;;;;5071994;28;20021;-80
2022/08/09 07:18:22;;;;;;;3.85;1.30;;;21.30;57.40;;;;;;5081184;28;20046;-75
2022/08/09 07:20:49;;;;;;;1.33;1.23;;;21.40;57.40;;;;;;5072834;28;20103;-81
2022/08/09 07:23:16;;;;;;;1.60;1.38;;;21.40;57.40;;;;;;5076995;28;20067;-75
2022/08/09 07:25:41;;;;;;;2.42;0.90;;;21.60;57.70;;;;;;5072547;28;20024;-75
2022/08/09 07:28:08;;;;;;;5.70;1.63;;;21.70;58.30;;;;;;5072588;28;20398;-76
2022/08/09 07:30:34;;;;;;;2.40;1.20;;;21.70;56.50;;;;;;5070971;28;20017;-75
2022/08/09 07:32:59;;;;;;;1.80;1.33;;;21.80;56.00;;;;;;5072619;28;20039;-82
2022/08/09 07:35:25;;;;;;;5.97;1.30;;;21.90;56.00;;;;;;5072270;28;20031;-80
2022/08/09 07:37:51;;;;;;;2.97;1.20;;;21.70;55.20;;;;;;5072124;28;20033;-82
2022/08/09 07:40:18;;;;;;;1.20;1.02;;;21.80;56.20;;;;;;5081294;28;20031;-82
2022/08/09 07:42:56;;;;;;;1.52;1.10;;;22.00;56.10;;;;;;5071044;28;20020;-82
2022/08/09 07:45:27;;;;;;;1.50;1.15;;;22.20;55.60;;;;;;5080693;28;20051;-75
2022/08/09 07:47:54;;;;;;;2.55;1.30;;;22.40;56.30;;;;;;5074834;28;20078;-75
2022/08/09 07:50:21;;;;;;;1.17;0.98;;;22.50;55.20;;;;;;5074048;28;20021;-75
2022/08/09 07:52:47;;;;;;;1.45;1.10;;;22.40;53.90;;;;;;5082142;28;20512;-75
2022/08/09 07:55:13;;;;;;;6.03;1.23;;;22.40;53.50;;;;;;5094593;28;20032;-75
2022/08/09 07:57:39;;;;;;;5.03;1.25;;;22.40;54.00;;;;;;5093390;28;20028;-75
2022/08/09 08:00:05;;;;;;;1.00;0.95;;;22.40;53.40;;;;;;5094068;28;20047;-76
2022/08/09 08:02:31;;;;;;;4.43;1.33;;;22.60;54.50;;;;;;5093140;28;20031;-75
2022/08/09 08:04:57;;;;;;;5.60;1.20;;;22.60;53.30;;;;;;5094694;28;20095;-75
2022/08/09 08:07:22;;;;;;;2.67;1.45;;;22.70;53.90;;;;;;5095538;28;20020;-75
2022/08/09 08:09:48;;;;;;;3.42;0.90;;;22.70;52.90;;;;;;5094280;28;20017;-75
2022/08/09 08:12:13;;;;;;;3.22;1.30;;;22.40;52.60;;;;;;5094634;28;20466;-75
2022/08/09 08:14:39;;;;;;;3.00;1.27;;;22.50;53.50;;;;;;5095167;28;20039;-75
2022/08/09 08:17:05;;;;;;;4.75;1.27;;;22.50;52.90;;;;;;5095053;28;20024;-75
2022/08/09 08:19:31;;;;;;;2.80;1.00;;;22.50;53.20;;;;;;5093678;28;20077;-75
2022/08/09 08:21:56;;;;;;;2.83;0.80;;;22.70;53.60;;;;;;5094017;28;20385;-75
2022/08/09 08:24:22;;;;;;;1.30;0.90;;;22.60;52.60;;;;;;5094647;28;20024;-75
2022/08/09 08:26:48;;;;;;;2.65;1.02;;;22.40;52.20;;;;;;5094589;28;20028;-82
2022/08/09 08:29:16;;;;;;;2.33;1.20;;;22.50;52.70;;;;;;5092501;28;20513;-81
2022/08/09 08:31:41;;;;;;;2.97;1.20;;;22.70;53.00;;;;;;5085871;28;20028;-75
2022/08/09 08:34:07;;;;;;;1.33;0.77;;;22.70;52.70;;;;;;5075393;28;20041;-81
2022/08/09 08:36:33;;;;;;;1.58;1.15;;;22.90;52.80;;;;;;5074999;28;20028;-82
2022/08/09 08:38:59;;;;;;;3.50;0.93;;;22.80;52.20;;;;;;5078501;28;20032;-76
2022/08/09 08:41:25;;;;;;;1.85;1.10;;;22.90;52.00;;;;;;5075248;28;20466;-76
2022/08/09 08:43:51;;;;;;;1.52;1.33;;;22.70;51.30;;;;;;5075232;28;20539;-80
2022/08/09 08:46:20;;;;;;;4.63;1.08;;;22.60;51.20;;;;;;5086486;28;20021;-75
2022/08/09 08:48:46;;;;;;;2.17;1.08;;;22.70;51.20;;;;;;5077014;28;20055;-81
2022/08/09 08:51:12;;;;;;;3.95;1.13;;;22.70;51.40;;;;;;5091777;28;20504;-82
2022/08/09 08:53:38;;;;;;;3.90;0.90;;;22.60;51.20;;;;;;5091806;28;20040;-75
2022/08/09 08:56:05;;;;;;;2.08;0.90;;;22.80;51.50;;;;;;5092037;28;20115;-74
2022/08/09 08:58:34;;;;;;;1.35;1.10;;;23.00;51.40;;;;;;5093045;28;20098;-82
2022/08/09 09:01:02;;;;;;;1.50;1.08;;;23.10;51.50;;;;;;5093764;28;20118;-82
2022/08/09 09:03:33;;;;;;;1.02;1.02;;;23.20;50.80;;;;;;5093126;28;20049;-82
2022/08/09 09:06:00;;;;;;;2.97;1.10;;;23.10;51.20;;;;;;5091528;28;20115;-82
2022/08/09 09:08:31;;;;;;;5.47;1.30;;;23.20;51.50;;;;;;5092705;28;20038;-82
2022/08/09 09:10:59;;;;;;;1.30;1.20;;;23.50;51.70;;;;;;5091138;28;20047;-75
2022/08/09 09:13:25;;;;;;;1.23;0.93;;;23.50;51.00;;;;;;5091701;28;20024;-75
2022/08/09 09:15:51;;;;;;;1.92;1.10;;;23.70;50.70;;;;;;5085834;28;20258;-75
2022/08/09 09:18:16;;;;;;;2.17;1.17;;;23.70;49.90;;;;;;5093449;28;20026;-75
2022/08/09 09:20:43;;;;;;;3.03;0.90;;;23.90;49.20;;;;;;5083817;28;20471;-74
2022/08/09 09:23:09;;;;;;;1.30;0.88;;;24.00;49.60;;;;;;5090777;28;20038;-76
2022/08/09 09:25:42;;;;;;;4.00;0.93;;;24.00;49.20;;;;;;5091996;28;20481;-83
2022/08/09 09:28:10;;;;;;;3.13;1.33;;;24.10;49.00;;;;;;5093008;28;20016;-75
2022/08/09 09:30:53;;;;;;;2.13;1.10;;;24.30;48.50;;;;;;5091923;28;20036;-76
2022/08/09 09:33:19;;;;;;;1.20;0.73;;;24.40;47.80;;;;;;5078660;28;20074;-75
2022/08/09 09:35:52;;;;;;;1.90;1.08;;;24.30;48.20;;;;;;5093285;28;20051;-76
2022/08/09 09:38:21;;;;;;;1.33;0.80;;;24.20;48.20;;;;;;5093238;28;20063;-75
2022/08/09 09:40:46;;;;;;;2.35;1.25;;;24.00;48.40;;;;;;5093126;28;20020;-75
2022/08/09 09:43:19;;;;;;;1.38;0.90;;;24.00;49.10;;;;;;5091710;28;20553;-83
2022/08/09 09:45:51;;;;;;;4.13;1.17;;;24.10;51.20;;;;;;5075904;28;20124;-76
2022/08/09 09:48:18;;;;;;;1.90;1.13;;;24.00;50.30;;;;;;5092690;28;20056;-81
2022/08/09 09:50:47;;;;;;;2.00;1.00;;;23.90;49.30;;;;;;5089856;28;20473;-82
2022/08/09 09:53:21;;;;;;;5.32;0.85;;;23.50;48.60;;;;;;5090851;28;20502;-75
2022/08/09 09:56:01;;;;;;;1.83;0.70;;;23.80;49.50;;;;;;5080470;28;20073;-75
2022/08/09 09:58:44;;;;;;;1.15;0.70;;;23.70;49.10;;;;;;5083441;28;20032;-75
2022/08/09 10:01:20;;;;;;;2.58;1.00;;;23.70;48.70;;;;;;5078680;28;20020;-75
2022/08/09 10:03:49;;;;;;;1.88;1.05;;;24.20;48.70;;;;;;5080603;28;20456;-76
2022/08/09 10:06:15;;;;;;;1.63;0.82;;;24.00;49.50;;;;;;5081369;28;20466;-75
2022/08/09 10:08:43;;;;;;;2.85;0.95;;;24.20;49.10;;;;;;5086482;28;20051;-76
2022/08/09 10:11:26;;;;;;;1.42;1.27;;;24.40;49.10;;;;;;5090605;28;20540;-76
2022/08/09 10:13:53;;;;;;;4.30;0.90;;;24.30;48.80;;;;;;5087222;28;20618;-75
2022/08/09 10:16:29;;;;;;;1.48;1.08;;;24.00;48.40;;;;;;5082208;28;20020;-75
2022/08/09 10:18:57;;;;;;;1.58;1.20;;;23.60;48.60;;;;;;5091702;28;20027;-82
2022/08/09 10:21:24;;;;;;;2.75;1.40;;;23.30;49.20;;;;;;5092341;28;20020;-82
2022/08/09 10:23:50;;;;;;;2.88;1.27;;;23.20;50.00;;;;;;5092427;28;20394;-82
2022/08/09 10:26:16;;;;;;;3.17;1.55;;;23.30;50.30;;;;;;5090995;28;20370;-80
2022/08/09 10:28:43;;;;;;;4.28;1.40;;;23.20;49.80;;;;;;5090606;28;20446;-75
2022/08/09 10:31:12;;;;;;;3.30;1.10;;;23.10;49.70;;;;;;5092559;28;20024;-75
2022/08/09 10:33:39;;;;;;;4.60;1.33;;;23.60;49.50;;;;;;5092251;28;20131;-75
2022/08/09 10:36:06;;;;;;;1.85;1.20;;;23.90;49.20;;;;;;5092647;28;20031;-82
2022/08/09 10:38:32;;;;;;;2.30;1.20;;;24.00;48.60;;;;;;5092172;28;20092;-75
2022/08/09 10:40:58;;;;;;;3.95;1.52;;;23.70;49.20;;;;;;5092529;28;20028;-82
2022/08/09 10:43:25;;;;;;;1.50;0.90;;;23.50;49.60;;;;;;5090143;28;20028;-81
2022/08/09 10:45:51;;;;;;;4.18;1.45;;;23.30;49.60;;;;;;5077401;28;20398;-81
2022/08/09 10:48:36;;;;;;;1.50;1.10;;;23.20;50.50;;;;;;5092028;28;20040;-80
2022/08/09 10:51:22;;;;;;;1.00;0.80;;;23.20;51.00;;;;;;5092601;28;20462;-81
2022/08/09 10:54:04;;;;;;;2.05;1.00;;;23.20;50.50;;;;;;5092103;28;20093;-75
2022/08/09 10:56:38;;;;;;;2.47;1.10;;;23.20;50.30;;;;;;5091588;28;20054;-80
2022/08/09 10:59:22;;;;;;;4.32;1.05;;;23.50;50.70;;;;;;5090871;28;20020;-80
2022/08/09 11:01:48;;;;;;;3.15;1.05;;;24.00;50.20;;;;;;5090650;28;20115;-80
2022/08/09 11:04:19;;;;;;;4.55;0.90;;;24.40;49.90;;;;;;5092548;28;20056;-81
2022/08/09 11:06:47;;;;;;;1.80;0.70;;;24.50;48.50;;;;;;5092172;28;20020;-80
2022/08/09 11:09:17;;;;;;;1.60;0.90;;;24.70;47.80;;;;;;5092279;28;20032;-82
2022/08/09 11:11:57;;;;;;;1.27;0.98;;;24.70;48.20;;;;;;5091285;28;20053;-80
2022/08/09 11:14:34;;;;;;;3.08;1.15;;;25.00;48.40;;;;;;5085345;28;20044;-81
2022/08/09 11:17:00;;;;;;;1.02;0.90;;;25.20;47.40;;;;;;5089625;28;20066;-81
2022/08/09 11:19:55;;;;;;;0.93;0.80;;;25.30;46.70;;;;;;5095248;28;20025;-80
2022/08/09 11:22:42;;;;;;;3.92;0.93;;;25.30;46.40;;;;;;5095615;28;20032;-79
2022/08/09 11:25:14;;;;;;;5.28;1.42;;;24.70;47.00;;;;;;5096944;28;20020;-81
2022/08/09 11:27:43;;;;;;;;;;;24.30;47.60;;;;;;5096054;28;20477;-75
2022/08/09 11:30:14;;;;;;;2.78;0.93;;;23.90;48.00;;;;;;5096705;28;19953;-76
2022/08/09 11:32:46;;;;;;;3.05;1.00;;;23.60;49.50;;;;;;5095333;28;20027;-75
2022/08/09 11:35:31;;;;;;;1.33;1.02;;;23.50;49.20;;;;;;5096842;28;20028;-80
2022/08/09 11:38:12;;;;;;;5.88;1.10;;;23.20;49.30;;;;;;5094767;28;20374;-81
2022/08/09 11:40:38;;;;;;;3.67;1.40;;;23.00;49.70;;;;;;5096577;28;20024;-81
2022/08/09 11:43:03;;;;;;;5.90;1.00;;;23.10;51.00;;;;;;5095180;28;20028;-75
2022/08/09 11:45:43;;;;;;;2.30;1.30;;;23.20;51.30;;;;;;5095192;28;20020;-80
2022/08/09 11:48:11;;;;;;;3.03;1.27;;;23.30;50.00;;;;;;5096192;28;20051;-74
2022/08/09 11:50:57;;;;;;;2.10;1.27;;;23.80;49.40;;;;;;5091027;28;20389;-75
2022/08/09 11:53:30;;;;;;;4.03;1.10;;;23.70;49.40;;;;;;5080764;28;20044;-80
2022/08/09 11:56:19;;;;;;;2.05;0.80;;;23.50;49.80;;;;;;5087777;28;20169;-81
2022/08/09 11:58:52;;;;;;;6.32;1.10;;;23.40;49.60;;;;;;5085783;28;20073;-80
2022/08/09 12:01:29;;;;;;;2.55;0.75;;;23.30;50.30;;;;;;5073891;28;20028;-80
2022/08/09 12:04:00;;;;;;;4.50;0.93;;;23.30;50.70;;;;;;5075781;28;20359;-75
2022/08/09 12:06:26;;;;;;;0.82;0.82;;;23.20;50.30;;;;;;5075638;28;20048;-74
2022/08/09 12:08:54;;;;;;;1.40;0.90;;;23.20;51.10;;;;;;5075523;28;20078;-74
2022/08/09 12:11:23;;;;;;;1.08;0.73;;;23.30;50.70;;;;;;5075471;28;20021;-75
2022/08/09 12:13:51;;;;;;;4.30;1.30;;;23.40;50.40;;;;;;5074151;28;20406;-75
2022/08/09 12:16:37;;;;;;;1.33;1.25;;;23.50;50.80;;;;;;5075087;28;20024;-80
2022/08/09 12:19:04;;;;;;;2.20;0.95;;;23.50;49.90;;;;;;5075533;28;20028;-74
2022/08/09 12:21:41;;;;;;;1.60;1.00;;;23.70;50.30;;;;;;5074218;28;20568;-74
2022/08/09 12:24:09;;;;;;;3.53;1.10;;;23.80;49.20;;;;;;5074212;28;20043;-75
2022/08/09 12:26:44;;;;;;;2.22;1.00;;;23.70;50.20;;;;;;5074219;28;20409;-80
2022/08/09 12:29:20;;;;;;;1.67;1.08;;;23.60;49.00;;;;;;5073722;28;20389;-75
2022/08/09 12:31:47;;;;;;;1.27;0.85;;;23.80;49.20;;;;;;5074184;28;20445;-74
2022/08/09 12:34:30;;;;;;;2.67;1.00;;;24.00;49.20;;;;;;5073936;28;20452;-75
2022/08/09 12:36:55;;;;;;;;;;;24.30;49.10;;;;;;5074205;28;20043;-75
2022/08/09 12:39:22;;;;;;;1.88;1.00;;;24.80;47.80;;;;;;5084753;28;19904;-79
2022/08/09 12:41:47;;;;;;;2.35;1.25;;;24.80;48.10;;;;;;5094062;28;20028;-79
2022/08/09 12:44:14;;;;;;;5.68;1.02;;;24.40;48.10;;;;;;5095390;28;20019;-79
2022/08/09 12:46:43;;;;;;;4.82;0.98;;;24.00;48.90;;;;;;5095400;28;20504;-80
2022/08/09 12:49:10;;;;;;;2.20;0.93;;;24.10;49.80;;;;;;5095088;28;20044;-75
2022/08/09 12:51:36;;;;;;;2.17;1.10;;;24.00;50.70;;;;;;5095208;28;20104;-75
2022/08/09 12:54:04;;;;;;;2.15;0.90;;;24.00;50.50;;;;;;5094789;28;20032;-75
2022/08/09 12:56:30;;;;;;;3.17;1.10;;;23.80;50.30;;;;;;5095161;28;20020;-76